Hauptseite
METAR-TAF:

METAR-TAF

Flughäfen :

St Athan, Wales

Breite: 51-24N, Länge: 003-26W, Höhe: 50 m

Beobachtung

Neuester Wetterbericht von vor 42 Minuten, um 23:50 UTC
Wind 6 kt aus Ost/Südost
Temperatur 9°C
Luftfeuchtigkeit 93%
Luftdruck 1018 hPa
Sichtweite 10 km oder mehr

METAR: EGDX 142350Z AUTO 12006KT 9999 FEW022/// 09/08 Q1018

Zeit: 00:32 (00:32 UTC)

Prognose

Neuester Wetterbericht von vor 10 Stunden und 59 Minuten, um 13:33 UTC
Gültige Prognose vom 14 um 15 UTC bis 14 um 18 UTC
Wind 8 kt aus Süd/Südost
Sichtweite 10 km oder mehr
Aufgelockert bewölkt in der Höhe von 2800 ft
Wahrscheinlichkeit 30%
vom 14 um 15 UTC bis 14 um 18 UTC
Aufgelockert bewölkt in der Höhe von 1800 ft

TAF: EGDX 141333Z 1415/1418 16008KT 9999 SCT028 PROB30 1415/1418 SCT018

Wetterbeobachtungen und Prognosen von mehr als 4000 Flughäfen (METAR und TAF Bericht).

Die verfügbaren Stationen werden durch gelbe und rote Markierungen auf der Karte dargestellt.

Führen Sie die Maus auf sie, um den Namen der Station zu sehen.

Darauf klicken, um die Beobachtung von Wetterbeobachtungen und Prognosen zu sehen.

Um die Karte zu ändern : klicken Sie auf den grünen Tasten mit einem schwarzen Kreuz Zum Vergrößern, auf den grünen Button mit einem Gedankenstrich zu verkleinern, oder auf die grünen Pfeile für benachbarte Karten.


METAR-TAF: